sensor_id;sensor_type;location;lat;lon;timestamp;pressure;altitude;pressure_sealevel;temperature;humidity
11605;BME280;5858;43.076;25.626;2024-01-15T00:01:09;98664.59;;;-3.82;93.36
11605;BME280;5858;43.076;25.626;2024-01-15T00:03:36;98794.47;;;-3.09;93.04
11605;BME280;5858;43.076;25.626;2024-01-15T00:06:04;98691.81;;;-3.60;93.08
11605;BME280;5858;43.076;25.626;2024-01-15T00:08:31;98835.72;;;-2.76;93.04
11605;BME280;5858;43.076;25.626;2024-01-15T00:10:58;98785.97;;;-3.00;93.19
11605;BME280;5858;43.076;25.626;2024-01-15T00:13:25;98874.53;;;-2.70;93.23
11605;BME280;5858;43.076;25.626;2024-01-15T00:15:52;98744.56;;;-3.30;93.05
11605;BME280;5858;43.076;25.626;2024-01-15T00:18:20;98716.97;;;-3.46;93.03
11605;BME280;5858;43.076;25.626;2024-01-15T00:20:47;98643.91;;;-3.85;93.12
11605;BME280;5858;43.076;25.626;2024-01-15T00:23:16;98778.94;;;-3.23;93.13
11605;BME280;5858;43.076;25.626;2024-01-15T00:25:45;98766.69;;;-3.23;93.00
11605;BME280;5858;43.076;25.626;2024-01-15T00:28:12;98823.69;;;-2.78;93.30
11605;BME280;5858;43.076;25.626;2024-01-15T00:30:39;98770.25;;;-3.24;93.03
11605;BME280;5858;43.076;25.626;2024-01-15T00:33:06;98807.22;;;-3.04;93.27
11605;BME280;5858;43.076;25.626;2024-01-15T00:35:34;98700.06;;;-3.54;93.35
11605;BME280;5858;43.076;25.626;2024-01-15T00:38:01;98744.75;;;-3.33;93.15
11605;BME280;5858;43.076;25.626;2024-01-15T00:40:28;98698.63;;;-3.58;92.65
11605;BME280;5858;43.076;25.626;2024-01-15T00:42:55;98669.97;;;-3.96;92.98
11605;BME280;5858;43.076;25.626;2024-01-15T00:45:22;98606.25;;;-4.06;93.06
11605;BME280;5858;43.076;25.626;2024-01-15T00:47:49;98635.09;;;-4.07;93.13
11605;BME280;5858;43.076;25.626;2024-01-15T00:50:16;98771.09;;;-3.23;93.98
11605;BME280;5858;43.076;25.626;2024-01-15T00:52:45;98709.06;;;-3.58;94.52
11605;BME280;5858;43.076;25.626;2024-01-15T00:55:12;98803.22;;;-2.97;94.56
11605;BME280;5858;43.076;25.626;2024-01-15T00:57:39;98809.41;;;-2.98;94.38
11605;BME280;5858;43.076;25.626;2024-01-15T01:00:07;98805.50;;;-2.93;93.96
11605;BME280;5858;43.076;25.626;2024-01-15T01:02:34;98696.66;;;-3.67;94.06
11605;BME280;5858;43.076;25.626;2024-01-15T01:05:01;98765.97;;;-3.25;94.76
11605;BME280;5858;43.076;25.626;2024-01-15T01:07:28;98731.28;;;-3.39;94.40
11605;BME280;5858;43.076;25.626;2024-01-15T01:09:57;98699.38;;;-3.68;94.21
11605;BME280;5858;43.076;25.626;2024-01-15T01:12:24;98660.41;;;-3.84;94.52
11605;BME280;5858;43.076;25.626;2024-01-15T01:14:51;98720.47;;;-3.59;94.17
11605;BME280;5858;43.076;25.626;2024-01-15T01:17:18;98691.78;;;-3.84;94.23
11605;BME280;5858;43.076;25.626;2024-01-15T01:19:45;98734.56;;;-3.49;94.23
11605;BME280;5858;43.076;25.626;2024-01-15T01:22:12;98750.09;;;-3.34;94.52
11605;BME280;5858;43.076;25.626;2024-01-15T01:24:39;98742.00;;;-3.55;93.84
11605;BME280;5858;43.076;25.626;2024-01-15T01:27:07;98755.03;;;-3.42;93.65
11605;BME280;5858;43.076;25.626;2024-01-15T01:29:35;98661.06;;;-3.93;93.92
11605;BME280;5858;43.076;25.626;2024-01-15T01:32:02;98708.78;;;-3.66;93.70
11605;BME280;5858;43.076;25.626;2024-01-15T01:34:28;98677.13;;;-3.74;92.84
11605;BME280;5858;43.076;25.626;2024-01-15T01:36:56;98737.00;;;-3.58;93.51
11605;BME280;5858;43.076;25.626;2024-01-15T01:39:23;98693.09;;;-3.66;92.76
11605;BME280;5858;43.076;25.626;2024-01-15T01:41:50;98713.28;;;-3.81;93.84
11605;BME280;5858;43.076;25.626;2024-01-15T01:44:18;98735.22;;;-3.58;94.03
11605;BME280;5858;43.076;25.626;2024-01-15T01:46:45;98666.00;;;-4.01;93.86
11605;BME280;5858;43.076;25.626;2024-01-15T01:49:12;98606.72;;;-4.25;93.56
11605;BME280;5858;43.076;25.626;2024-01-15T01:51:39;98684.44;;;-3.79;93.39
11605;BME280;5858;43.076;25.626;2024-01-15T01:54:07;98637.00;;;-4.09;92.75
11605;BME280;5858;43.076;25.626;2024-01-15T01:56:37;98744.56;;;-3.30;93.63
11605;BME280;5858;43.076;25.626;2024-01-15T01:59:04;98731.97;;;-3.61;93.70
11605;BME280;5858;43.076;25.626;2024-01-15T02:01:34;98707.91;;;-3.54;93.21
11605;BME280;5858;43.076;25.626;2024-01-15T02:04:01;98742.66;;;-3.28;93.37
11605;BME280;5858;43.076;25.626;2024-01-15T02:06:28;98623.59;;;-4.05;93.41
11605;BME280;5858;43.076;25.626;2024-01-15T02:08:58;98737.69;;;-3.43;93.59
11605;BME280;5858;43.076;25.626;2024-01-15T02:11:26;98651.69;;;-3.96;93.79
11605;BME280;5858;43.076;25.626;2024-01-15T02:13:53;98716.81;;;-3.56;93.68
11605;BME280;5858;43.076;25.626;2024-01-15T02:16:20;98729.28;;;-3.36;93.42
11605;BME280;5858;43.076;25.626;2024-01-15T02:18:48;98550.16;;;-4.50;93.29
11605;BME280;5858;43.076;25.626;2024-01-15T02:21:15;98621.53;;;-4.13;93.33
11605;BME280;5858;43.076;25.626;2024-01-15T02:23:44;98541.00;;;-4.55;93.14
11605;BME280;5858;43.076;25.626;2024-01-15T02:26:11;98667.84;;;-3.78;93.43
11605;BME280;5858;43.076;25.626;2024-01-15T02:28:39;98639.84;;;-3.89;92.99
11605;BME280;5858;43.076;25.626;2024-01-15T02:31:07;98661.22;;;-3.71;93.03
11605;BME280;5858;43.076;25.626;2024-01-15T02:33:34;98657.47;;;-3.80;93.22
11605;BME280;5858;43.076;25.626;2024-01-15T02:36:00;98698.94;;;-3.62;92.99
11605;BME280;5858;43.076;25.626;2024-01-15T02:38:27;98549.84;;;-4.45;93.29
11605;BME280;5858;43.076;25.626;2024-01-15T02:40:56;98660.19;;;-3.81;93.07
11605;BME280;5858;43.076;25.626;2024-01-15T02:43:23;98695.16;;;-3.58;93.27
11605;BME280;5858;43.076;25.626;2024-01-15T02:45:50;98635.09;;;-4.07;93.54
11605;BME280;5858;43.076;25.626;2024-01-15T02:48:16;98604.31;;;-4.15;93.30
11605;BME280;5858;43.076;25.626;2024-01-15T02:50:43;98582.19;;;-4.35;93.07
11605;BME280;5858;43.076;25.626;2024-01-15T02:53:10;98708.13;;;-3.57;93.32
11605;BME280;5858;43.076;25.626;2024-01-15T02:55:37;98697.00;;;-3.71;93.49
11605;BME280;5858;43.076;25.626;2024-01-15T02:58:05;98589.81;;;-4.32;93.19
11605;BME280;5858;43.076;25.626;2024-01-15T03:00:32;98650.22;;;-4.00;93.57
11605;BME280;5858;43.076;25.626;2024-01-15T03:02:59;98580.53;;;-4.36;92.97
11605;BME280;5858;43.076;25.626;2024-01-15T03:05:26;98489.78;;;-4.82;92.81
11605;BME280;5858;43.076;25.626;2024-01-15T03:07:53;98599.81;;;-4.13;92.88
11605;BME280;5858;43.076;25.626;2024-01-15T03:10:20;98561.91;;;-4.68;92.94
11605;BME280;5858;43.076;25.626;2024-01-15T03:12:47;98571.34;;;-4.41;93.11
11605;BME280;5858;43.076;25.626;2024-01-15T03:15:15;98557.91;;;-4.73;92.66
11605;BME280;5858;43.076;25.626;2024-01-15T03:17:44;98714.00;;;-3.66;93.31
11605;BME280;5858;43.076;25.626;2024-01-15T03:20:11;98567.75;;;-4.64;93.21
11605;BME280;5858;43.076;25.626;2024-01-15T03:22:38;98641.91;;;-4.30;93.20
11605;BME280;5858;43.076;25.626;2024-01-15T03:25:06;98570.94;;;-4.48;93.38
11605;BME280;5858;43.076;25.626;2024-01-15T03:27:33;98592.00;;;-4.38;93.19
11605;BME280;5858;43.076;25.626;2024-01-15T03:30:00;98581.28;;;-4.47;93.61
11605;BME280;5858;43.076;25.626;2024-01-15T03:32:29;98678.19;;;-3.76;93.68
11605;BME280;5858;43.076;25.626;2024-01-15T03:34:56;98651.34;;;-3.91;94.01
11605;BME280;5858;43.076;25.626;2024-01-15T03:37:23;98655.97;;;-3.95;93.58
11605;BME280;5858;43.076;25.626;2024-01-15T03:39:50;98599.72;;;-4.24;93.70
11605;BME280;5858;43.076;25.626;2024-01-15T03:42:17;98572.00;;;-4.51;93.15
11605;BME280;5858;43.076;25.626;2024-01-15T03:44:44;98664.28;;;-3.77;92.99
11605;BME280;5858;43.076;25.626;2024-01-15T03:47:11;98628.53;;;-4.26;92.89
11605;BME280;5858;43.076;25.626;2024-01-15T03:49:39;98698.50;;;-3.56;92.89
11605;BME280;5858;43.076;25.626;2024-01-15T03:52:06;98646.13;;;-3.91;93.32
11605;BME280;5858;43.076;25.626;2024-01-15T03:54:32;98569.25;;;-4.36;93.06
11605;BME280;5858;43.076;25.626;2024-01-15T03:56:59;98676.09;;;-3.71;93.13
11605;BME280;5858;43.076;25.626;2024-01-15T03:59:26;98595.03;;;-4.19;93.25
11605;BME280;5858;43.076;25.626;2024-01-15T04:01:53;98569.91;;;-4.46;93.38
11605;BME280;5858;43.076;25.626;2024-01-15T04:04:20;98658.84;;;-3.87;93.55
11605;BME280;5858;43.076;25.626;2024-01-15T04:06:49;98697.00;;;-3.71;93.81
11605;BME280;5858;43.076;25.626;2024-01-15T04:09:16;98635.22;;;-4.09;93.66
11605;BME280;5858;43.076;25.626;2024-01-15T04:11:43;98674.66;;;-3.88;93.37
11605;BME280;5858;43.076;25.626;2024-01-15T04:14:10;98634.69;;;-4.14;92.88
11605;BME280;5858;43.076;25.626;2024-01-15T04:16:37;98534.34;;;-4.72;92.83
11605;BME280;5858;43.076;25.626;2024-01-15T04:19:04;98572.94;;;-4.52;92.96
11605;BME280;5858;43.076;25.626;2024-01-15T04:21:31;98557.91;;;-4.48;92.29
11605;BME280;5858;43.076;25.626;2024-01-15T04:23:59;98539.88;;;-4.64;92.55
11605;BME280;5858;43.076;25.626;2024-01-15T04:26:26;98641.44;;;-3.99;92.50
11605;BME280;5858;43.076;25.626;2024-01-15T04:28:53;98637.41;;;-4.16;93.09
11605;BME280;5858;43.076;25.626;2024-01-15T04:31:24;98639.66;;;-3.98;92.69
11605;BME280;5858;43.076;25.626;2024-01-15T04:33:52;98579.91;;;-4.39;92.52
11605;BME280;5858;43.076;25.626;2024-01-15T04:36:19;98508.78;;;-4.80;92.61
11605;BME280;5858;43.076;25.626;2024-01-15T04:38:46;98626.25;;;-4.18;91.92
11605;BME280;5858;43.076;25.626;2024-01-15T04:41:17;98576.34;;;-4.38;91.93
11605;BME280;5858;43.076;25.626;2024-01-15T04:43:59;98625.00;;;-4.25;92.79
11605;BME280;5858;43.076;25.626;2024-01-15T04:46:26;98531.44;;;-4.93;93.02
11605;BME280;5858;43.076;25.626;2024-01-15T04:48:53;98667.69;;;-4.00;93.76
11605;BME280;5858;43.076;25.626;2024-01-15T04:51:21;98662.28;;;-4.10;93.65
11605;BME280;5858;43.076;25.626;2024-01-15T04:53:48;98569.53;;;-4.65;93.93
11605;BME280;5858;43.076;25.626;2024-01-15T04:56:18;98633.56;;;-4.35;93.90
11605;BME280;5858;43.076;25.626;2024-01-15T04:58:45;98656.72;;;-4.05;93.97
11605;BME280;5858;43.076;25.626;2024-01-15T05:01:12;98629.91;;;-4.33;93.62
11605;BME280;5858;43.076;25.626;2024-01-15T05:03:39;98601.31;;;-4.47;93.71
11605;BME280;5858;43.076;25.626;2024-01-15T05:06:07;98492.56;;;-5.09;93.68
11605;BME280;5858;43.076;25.626;2024-01-15T05:08:34;98519.09;;;-4.78;93.73
11605;BME280;5858;43.076;25.626;2024-01-15T05:11:03;98471.41;;;-5.17;93.74
11605;BME280;5858;43.076;25.626;2024-01-15T05:13:32;98632.00;;;-4.25;93.66
11605;BME280;5858;43.076;25.626;2024-01-15T05:15:59;98460.31;;;-5.33;94.25
11605;BME280;5858;43.076;25.626;2024-01-15T05:18:26;98460.22;;;-5.44;94.41
11605;BME280;5858;43.076;25.626;2024-01-15T05:20:53;98551.88;;;-4.74;94.81
11605;BME280;5858;43.076;25.626;2024-01-15T05:23:20;98523.50;;;-4.79;94.50
11605;BME280;5858;43.076;25.626;2024-01-15T05:25:48;98614.66;;;-4.26;94.17
11605;BME280;5858;43.076;25.626;2024-01-15T05:28:15;98543.97;;;-4.72;94.10
11605;BME280;5858;43.076;25.626;2024-01-15T05:30:43;98650.00;;;-3.97;94.22
11605;BME280;5858;43.076;25.626;2024-01-15T05:33:10;98607.97;;;-4.18;93.89
11605;BME280;5858;43.076;25.626;2024-01-15T05:35:37;98595.13;;;-4.21;94.28
11605;BME280;5858;43.076;25.626;2024-01-15T05:38:04;98548.09;;;-4.57;94.62
11605;BME280;5858;43.076;25.626;2024-01-15T05:40:33;98600.69;;;-4.25;94.12
11605;BME280;5858;43.076;25.626;2024-01-15T05:43:00;98541.00;;;-4.55;93.87
11605;BME280;5858;43.076;25.626;2024-01-15T05:45:31;98444.88;;;-5.23;93.19
11605;BME280;5858;43.076;25.626;2024-01-15T05:48:00;98433.94;;;-5.16;93.37
11605;BME280;5858;43.076;25.626;2024-01-15T05:50:29;98439.28;;;-5.43;94.35
11605;BME280;5858;43.076;25.626;2024-01-15T05:52:56;98591.25;;;-4.28;94.56
11605;BME280;5858;43.076;25.626;2024-01-15T05:55:24;98509.59;;;-4.66;94.64
11605;BME280;5858;43.076;25.626;2024-01-15T05:58:01;98607.47;;;-3.99;94.04
11605;BME280;5858;43.076;25.626;2024-01-15T06:00:28;98407.03;;;-5.29;93.37
11605;BME280;5858;43.076;25.626;2024-01-15T06:02:56;98477.53;;;-5.05;94.61
11605;BME280;5858;43.076;25.626;2024-01-15T06:05:34;98551.88;;;-4.61;94.48
11605;BME280;5858;43.076;25.626;2024-01-15T06:08:06;98431.97;;;-5.12;93.51
11605;BME280;5858;43.076;25.626;2024-01-15T06:10:36;98437.38;;;-5.02;93.43
11605;BME280;5858;43.076;25.626;2024-01-15T06:13:03;98483.53;;;-4.79;94.17
11605;BME280;5858;43.076;25.626;2024-01-15T06:15:31;98621.66;;;-3.90;94.11
11605;BME280;5858;43.076;25.626;2024-01-15T06:17:58;98412.56;;;-5.08;93.12
11605;BME280;5858;43.076;25.626;2024-01-15T06:20:25;98391.59;;;-5.07;93.29
11605;BME280;5858;43.076;25.626;2024-01-15T06:22:54;98395.25;;;-5.22;93.60
11605;BME280;5858;43.076;25.626;2024-01-15T06:25:24;98567.28;;;-4.09;93.88
11605;BME280;5858;43.076;25.626;2024-01-15T06:27:54;98551.56;;;-4.20;94.37
11605;BME280;5858;43.076;25.626;2024-01-15T06:30:23;98414.34;;;-4.85;93.65
11605;BME280;5858;43.076;25.626;2024-01-15T06:32:50;98517.41;;;-4.17;93.57
11605;BME280;5858;43.076;25.626;2024-01-15T06:35:20;98576.44;;;-3.67;93.39
11605;BME280;5858;43.076;25.626;2024-01-15T06:37:56;98478.56;;;-4.22;92.62
11605;BME280;5858;43.076;25.626;2024-01-15T06:40:25;98562.03;;;-3.72;92.42
11605;BME280;5858;43.076;25.626;2024-01-15T06:42:52;98407.25;;;-4.35;91.59
11605;BME280;5858;43.076;25.626;2024-01-15T06:45:21;98389.88;;;-4.47;91.56
11605;BME280;5858;43.076;25.626;2024-01-15T06:47:48;98591.09;;;-3.18;91.65
11605;BME280;5858;43.076;25.626;2024-01-15T06:50:21;98443.69;;;-4.09;91.51
11605;BME280;5858;43.076;25.626;2024-01-15T06:53:04;98562.50;;;-3.32;91.94
11605;BME280;5858;43.076;25.626;2024-01-15T06:55:33;98452.56;;;-3.88;91.26
11605;BME280;5858;43.076;25.626;2024-01-15T06:58:01;98561.53;;;-2.96;91.10
11605;BME280;5858;43.076;25.626;2024-01-15T07:00:33;98514.53;;;-3.20;90.82
11605;BME280;5858;43.076;25.626;2024-01-15T07:03:04;98361.56;;;-3.94;90.67
11605;BME280;5858;43.076;25.626;2024-01-15T07:05:33;98557.88;;;-2.60;90.52
11605;BME280;5858;43.076;25.626;2024-01-15T07:08:07;98527.19;;;-2.80;90.22
11605;BME280;5858;43.076;25.626;2024-01-15T07:10:41;98393.13;;;-3.51;89.69
11605;BME280;5858;43.076;25.626;2024-01-15T07:19:33;98448.38;;;-2.66;86.58
11605;BME280;5858;43.076;25.626;2024-01-15T07:22:09;98385.16;;;-3.05;86.76
11605;BME280;5858;43.076;25.626;2024-01-15T07:24:59;98382.59;;;-2.84;87.86
11605;BME280;5858;43.076;25.626;2024-01-15T07:27:41;98517.31;;;-2.11;88.44
11605;BME280;5858;43.076;25.626;2024-01-15T07:30:13;98368.56;;;-2.72;87.73
11605;BME280;5858;43.076;25.626;2024-01-15T07:32:43;98488.38;;;-1.78;87.03
11605;BME280;5858;43.076;25.626;2024-01-15T07:35:15;98454.84;;;-1.95;87.16
11605;BME280;5858;43.076;25.626;2024-01-15T07:37:44;98560.72;;;-1.22;86.97
11605;BME280;5858;43.076;25.626;2024-01-15T07:40:26;98460.75;;;-1.82;87.12
11605;BME280;5858;43.076;25.626;2024-01-15T07:42:56;98366.34;;;-2.24;86.04
11605;BME280;5858;43.076;25.626;2024-01-15T07:45:26;98546.94;;;-1.15;85.74
11605;BME280;5858;43.076;25.626;2024-01-15T07:47:53;98415.63;;;-1.85;85.98
11605;BME280;5858;43.076;25.626;2024-01-15T07:50:20;98548.22;;;-0.88;86.02
11605;BME280;5858;43.076;25.626;2024-01-15T07:55:39;98456.41;;;-1.30;86.41
11605;BME280;5858;43.076;25.626;2024-01-15T07:58:06;98424.53;;;-1.46;86.60
11605;BME280;5858;43.076;25.626;2024-01-15T08:00:33;98442.50;;;-1.21;86.77
11605;BME280;5858;43.076;25.626;2024-01-15T08:03:00;98569.66;;;-0.22;86.22
11605;BME280;5858;43.076;25.626;2024-01-15T08:05:32;98364.84;;;-1.33;85.95
11605;BME280;5858;43.076;25.626;2024-01-15T08:08:01;98367.19;;;-1.30;84.80
11605;BME280;5858;43.076;25.626;2024-01-15T08:10:30;98470.72;;;-0.43;84.08
11605;BME280;5858;43.076;25.626;2024-01-15T08:13:02;98367.50;;;-0.74;83.33
11605;BME280;5858;43.076;25.626;2024-01-15T08:15:31;98438.38;;;-0.14;83.70
11605;BME280;5858;43.076;25.626;2024-01-15T08:18:11;98525.63;;;0.58;83.04
11605;BME280;5858;43.076;25.626;2024-01-15T08:20:40;98446.72;;;0.01;81.64
11605;BME280;5858;43.076;25.626;2024-01-15T08:23:08;98406.03;;;0.05;81.42
11605;BME280;5858;43.076;25.626;2024-01-15T08:25:38;98524.44;;;1.00;81.00
11605;BME280;5858;43.076;25.626;2024-01-15T08:28:19;98532.47;;;1.08;80.29
11605;BME280;5858;43.076;25.626;2024-01-15T08:30:55;98544.47;;;1.30;80.13
11605;BME280;5858;43.076;25.626;2024-01-15T08:34:57;98366.19;;;0.46;80.38
11605;BME280;5858;43.076;25.626;2024-01-15T08:36:59;98535.13;;;1.72;80.74
11605;BME280;5858;43.076;25.626;2024-01-15T08:39:30;98460.34;;;1.46;80.53
11605;BME280;5858;43.076;25.626;2024-01-15T08:41:59;98514.25;;;2.06;79.57
11605;BME280;5858;43.076;25.626;2024-01-15T08:44:27;98504.84;;;2.21;79.35
11605;BME280;5858;43.076;25.626;2024-01-15T08:46:54;98507.41;;;2.31;77.11
11605;BME280;5858;43.076;25.626;2024-01-15T08:49:21;98418.31;;;1.89;76.00
11605;BME280;5858;43.076;25.626;2024-01-15T08:51:48;98479.59;;;2.37;76.90
11605;BME280;5858;43.076;25.626;2024-01-15T08:54:17;98496.56;;;2.78;74.88
11605;BME280;5858;43.076;25.626;2024-01-15T08:56:47;98362.59;;;2.10;74.24
11605;BME280;5858;43.076;25.626;2024-01-15T08:59:23;98449.31;;;2.93;74.58
11605;BME280;5858;43.076;25.626;2024-01-15T09:01:52;98334.94;;;2.40;71.70
11605;BME280;5858;43.076;25.626;2024-01-15T09:04:21;98440.34;;;3.20;68.09
11605;BME280;5858;43.076;25.626;2024-01-15T09:06:53;98475.53;;;3.54;67.38
11605;BME280;5858;43.076;25.626;2024-01-15T09:09:20;98408.75;;;3.44;62.13
11605;BME280;5858;43.076;25.626;2024-01-15T09:11:48;98497.38;;;4.15;58.36
11605;BME280;5858;43.076;25.626;2024-01-15T09:14:41;98458.72;;;4.30;54.95
11605;BME280;5858;43.076;25.626;2024-01-15T09:17:09;98402.75;;;4.17;55.05
11605;BME280;5858;43.076;25.626;2024-01-15T09:19:51;98413.69;;;4.46;54.38
11605;BME280;5858;43.076;25.626;2024-01-15T09:22:24;98364.72;;;4.26;54.18
11605;BME280;5858;43.076;25.626;2024-01-15T09:25:18;98281.84;;;4.01;53.84
11605;BME280;5858;43.076;25.626;2024-01-15T09:27:59;98422.72;;;4.92;53.50
11605;BME280;5858;43.076;25.626;2024-01-15T09:30:33;98421.66;;;5.10;52.31
11605;BME280;5858;43.076;25.626;2024-01-15T09:33:16;98325.47;;;4.93;52.07
11605;BME280;5858;43.076;25.626;2024-01-15T09:35:43;98407.91;;;5.53;52.31
11605;BME280;5858;43.076;25.626;2024-01-15T09:38:21;98386.16;;;5.58;52.31
11605;BME280;5858;43.076;25.626;2024-01-15T09:41:14;98357.59;;;5.68;51.29
11605;BME280;5858;43.076;25.626;2024-01-15T09:43:47;98270.19;;;5.13;50.87
11605;BME280;5858;43.076;25.626;2024-01-15T09:46:16;98385.66;;;6.16;50.29
11605;BME280;5858;43.076;25.626;2024-01-15T09:48:51;98236.94;;;5.33;49.48
11605;BME280;5858;43.076;25.626;2024-01-15T09:51:19;98370.13;;;6.28;50.24
11605;BME280;5858;43.076;25.626;2024-01-15T09:53:55;98291.78;;;5.86;50.17
11605;BME280;5858;43.076;25.626;2024-01-15T09:56:27;98332.00;;;6.21;48.93
11605;BME280;5858;43.076;25.626;2024-01-15T09:59:04;98352.59;;;6.56;49.40
11605;BME280;5858;43.076;25.626;2024-01-15T10:01:32;98258.16;;;6.02;48.41
11605;BME280;5858;43.076;25.626;2024-01-15T10:04:07;98182.78;;;5.65;49.39
11605;BME280;5858;43.076;25.626;2024-01-15T10:07:01;98350.59;;;6.73;49.24
11605;BME280;5858;43.076;25.626;2024-01-15T10:09:28;98322.91;;;6.82;49.00
11605;BME280;5858;43.076;25.626;2024-01-15T10:11:58;98338.78;;;6.90;49.00
11605;BME280;5858;43.076;25.626;2024-01-15T10:14:26;98286.34;;;6.70;49.60
11605;BME280;5858;43.076;25.626;2024-01-15T10:16:56;98168.16;;;6.07;49.51
11605;BME280;5858;43.076;25.626;2024-01-15T10:19:25;98302.25;;;7.14;50.38
11605;BME280;5858;43.076;25.626;2024-01-15T10:21:53;98190.59;;;6.48;50.42
11605;BME280;5858;43.076;25.626;2024-01-15T10:24:20;98233.78;;;6.86;48.06
11605;BME280;5858;43.076;25.626;2024-01-15T10:26:47;98259.97;;;7.19;47.98
11605;BME280;5858;43.076;25.626;2024-01-15T10:29:17;98272.66;;;7.38;48.15
11605;BME280;5858;43.076;25.626;2024-01-15T10:31:44;98137.50;;;6.55;47.97
11605;BME280;5858;43.076;25.626;2024-01-15T10:34:13;98211.63;;;7.15;48.64
11605;BME280;5858;43.076;25.626;2024-01-15T10:36:49;98161.00;;;6.87;48.17
11605;BME280;5858;43.076;25.626;2024-01-15T10:39:20;98244.84;;;7.41;48.17
11605;BME280;5858;43.076;25.626;2024-01-15T10:41:48;98231.09;;;7.37;48.36
11605;BME280;5858;43.076;25.626;2024-01-15T10:44:20;98244.41;;;7.58;48.14
11605;BME280;5858;43.076;25.626;2024-01-15T10:46:49;98204.34;;;7.45;48.47
11605;BME280;5858;43.076;25.626;2024-01-15T10:49:16;98130.44;;;7.19;47.61
11605;BME280;5858;43.076;25.626;2024-01-15T10:51:47;98102.00;;;6.99;48.71
11605;BME280;5858;43.076;25.626;2024-01-15T10:54:17;98233.16;;;8.06;47.59
11605;BME280;5858;43.076;25.626;2024-01-15T10:56:46;98226.53;;;8.02;47.79
11605;BME280;5858;43.076;25.626;2024-01-15T10:59:13;98193.50;;;7.96;45.74
11605;BME280;5858;43.076;25.626;2024-01-15T11:01:41;98214.03;;;8.30;45.72
11605;BME280;5858;43.076;25.626;2024-01-15T11:04:10;98066.31;;;7.36;46.05
11605;BME280;5858;43.076;25.626;2024-01-15T11:06:43;98210.06;;;8.19;46.25
11605;BME280;5858;43.076;25.626;2024-01-15T11:09:13;98220.25;;;8.37;45.63
11605;BME280;5858;43.076;25.626;2024-01-15T11:11:41;98216.84;;;8.50;44.64
11605;BME280;5858;43.076;25.626;2024-01-15T11:14:12;98075.16;;;7.71;43.33
11605;BME280;5858;43.076;25.626;2024-01-15T11:16:59;98147.78;;;8.20;43.72
11605;BME280;5858;43.076;25.626;2024-01-15T11:19:47;98157.00;;;8.52;42.83
11605;BME280;5858;43.076;25.626;2024-01-15T11:28:49;98106.63;;;8.30;43.67
11605;BME280;5858;43.076;25.626;2024-01-15T11:31:19;98102.72;;;8.32;43.31
11605;BME280;5858;43.076;25.626;2024-01-15T11:34:01;98153.81;;;8.83;41.23
11605;BME280;5858;43.076;25.626;2024-01-15T11:37:02;98059.53;;;8.37;41.87
11605;BME280;5858;43.076;25.626;2024-01-15T11:39:48;98010.22;;;8.06;41.86
11605;BME280;5858;43.076;25.626;2024-01-15T11:42:25;98097.16;;;8.62;41.89
11605;BME280;5858;43.076;25.626;2024-01-15T11:45:03;98169.94;;;9.36;41.07
11605;BME280;5858;43.076;25.626;2024-01-15T11:48:19;98126.38;;;9.09;42.25
11605;BME280;5858;43.076;25.626;2024-01-15T11:50:56;98067.03;;;8.81;40.58
11605;BME280;5858;43.076;25.626;2024-01-15T11:53:59;97996.19;;;8.39;40.39
11605;BME280;5858;43.076;25.626;2024-01-15T11:59:48;98031.16;;;9.10;40.19
11605;BME280;5858;43.076;25.626;2024-01-15T12:02:33;97984.16;;;8.76;39.53
11605;BME280;5858;43.076;25.626;2024-01-15T12:05:24;98077.53;;;9.55;39.53
11605;BME280;5858;43.076;25.626;2024-01-15T12:07:57;98031.13;;;9.30;38.34
11605;BME280;5858;43.076;25.626;2024-01-15T12:10:33;98042.22;;;9.46;39.25
11605;BME280;5858;43.076;25.626;2024-01-15T12:13:20;97948.22;;;8.98;38.97
11605;BME280;5858;43.076;25.626;2024-01-15T12:16:07;98011.41;;;9.37;38.54
11605;BME280;5858;43.076;25.626;2024-01-15T12:19:00;98014.06;;;9.44;39.07
11605;BME280;5858;43.076;25.626;2024-01-15T12:22:43;98071.16;;;9.63;38.00
11605;BME280;5858;43.076;25.626;2024-01-15T12:25:16;97992.94;;;9.36;37.22
11605;BME280;5858;43.076;25.626;2024-01-15T12:27:59;98047.75;;;9.65;37.68
11605;BME280;5858;43.076;25.626;2024-01-15T12:30:46;98104.75;;;10.10;38.62
11605;BME280;5858;43.076;25.626;2024-01-15T12:37:21;97933.47;;;8.63;37.80
11605;BME280;5858;43.076;25.626;2024-01-15T12:47:21;97958.50;;;8.75;38.57
11605;BME280;5858;43.076;25.626;2024-01-15T12:50:33;97956.03;;;8.73;38.87
11605;BME280;5858;43.076;25.626;2024-01-15T12:53:33;98066.63;;;9.43;39.45
11605;BME280;5858;43.076;25.626;2024-01-15T12:56:05;98003.63;;;8.96;37.74
11605;BME280;5858;43.076;25.626;2024-01-15T12:58:38;97984.34;;;8.81;38.67
11605;BME280;5858;43.076;25.626;2024-01-15T13:01:05;98048.59;;;9.12;38.48
11605;BME280;5858;43.076;25.626;2024-01-15T13:04:02;97948.25;;;8.52;39.24
11605;BME280;5858;43.076;25.626;2024-01-15T13:06:37;98053.72;;;9.27;37.45
11605;BME280;5858;43.076;25.626;2024-01-15T13:09:06;98033.81;;;9.23;38.59
11605;BME280;5858;43.076;25.626;2024-01-15T13:11:38;98057.00;;;9.42;38.15
11605;BME280;5858;43.076;25.626;2024-01-15T13:14:06;97941.47;;;8.63;38.46
11605;BME280;5858;43.076;25.626;2024-01-15T13:16:36;97944.97;;;8.57;39.34
11605;BME280;5858;43.076;25.626;2024-01-15T13:19:03;97992.34;;;8.81;38.93
11605;BME280;5858;43.076;25.626;2024-01-15T13:21:30;98036.88;;;9.27;39.34
11605;BME280;5858;43.076;25.626;2024-01-15T13:23:58;97976.34;;;8.88;38.60
11605;BME280;5858;43.076;25.626;2024-01-15T13:26:26;97943.72;;;8.79;38.49
11605;BME280;5858;43.076;25.626;2024-01-15T13:28:53;98026.63;;;9.24;39.33
11605;BME280;5858;43.076;25.626;2024-01-15T13:31:21;98055.34;;;9.35;39.71
11605;BME280;5858;43.076;25.626;2024-01-15T13:33:47;98065.84;;;9.50;39.18
11605;BME280;5858;43.076;25.626;2024-01-15T13:36:15;97893.47;;;8.43;39.36
11605;BME280;5858;43.076;25.626;2024-01-15T16:00:02;97852.91;;;5.94;44.99
11605;BME280;5858;43.076;25.626;2024-01-15T16:02:49;98029.47;;;6.83;45.33
11605;BME280;5858;43.076;25.626;2024-01-15T16:09:15;98018.25;;;6.88;45.47
11605;BME280;5858;43.076;25.626;2024-01-15T18:10:25;97802.53;;;6.28;43.83
11605;BME280;5858;43.076;25.626;2024-01-15T21:33:29;97572.09;;;7.24;49.58
11605;BME280;5858;43.076;25.626;2024-01-15T21:36:02;97664.59;;;7.75;49.88
11605;BME280;5858;43.076;25.626;2024-01-15T21:38:29;97656.41;;;7.70;49.74
11605;BME280;5858;43.076;25.626;2024-01-15T21:41:00;97649.00;;;7.46;49.79